createdAt,value
2018-11-14T00:01:18.051Z,50.67
2018-11-14T00:03:49.542Z,77.23
2018-11-14T00:06:20.846Z,49.03
2018-11-14T00:08:51.995Z,50.53
2018-11-14T00:11:23.005Z,43.67
2018-11-14T00:13:54.028Z,51.53
2018-11-14T00:16:25.220Z,48.47
2018-11-14T00:18:56.323Z,49.77
2018-11-14T00:21:27.387Z,52.53
2018-11-14T00:23:58.369Z,52.40
2018-11-14T00:26:29.619Z,52.90
2018-11-14T00:29:00.952Z,53.00
2018-11-14T00:31:32.170Z,48.97
2018-11-14T00:34:03.215Z,50.80
2018-11-14T00:36:34.520Z,50.20
2018-11-14T00:39:07.508Z,52.80
2018-11-14T00:41:38.807Z,48.27
2018-11-14T00:44:10.176Z,48.63
2018-11-14T00:46:41.520Z,49.03
2018-11-14T00:49:12.899Z,51.73
2018-11-14T00:51:44.041Z,47.70
2018-11-14T00:54:15.738Z,43.97
2018-11-14T00:56:47.509Z,59.73
2018-11-14T00:59:18.803Z,50.10
2018-11-14T01:01:49.788Z,48.33
2018-11-14T01:04:21.363Z,41.03
2018-11-14T01:06:52.569Z,45.90
2018-11-14T01:09:23.756Z,50.17
2018-11-14T01:11:54.952Z,42.83
2018-11-14T01:14:26.144Z,52.87
2018-11-14T01:16:57.351Z,38.73
2018-11-14T01:19:28.579Z,43.27
2018-11-14T01:21:59.918Z,43.47
2018-11-14T01:24:31.131Z,42.20
2018-11-14T01:27:02.529Z,55.63
2018-11-14T01:29:33.700Z,48.90
2018-11-14T01:32:04.848Z,44.17
2018-11-14T01:34:35.883Z,46.23
2018-11-14T01:37:07.348Z,42.07
2018-11-14T01:39:38.448Z,49.27
2018-11-14T01:42:09.655Z,58.40
2018-11-14T01:44:40.836Z,52.67
2018-11-14T01:47:12.127Z,62.23
2018-11-14T01:49:43.474Z,48.87
2018-11-14T01:52:14.795Z,49.53
2018-11-14T01:54:46.292Z,52.70
2018-11-14T01:57:17.376Z,50.93
2018-11-14T01:59:48.381Z,54.30
2018-11-14T02:02:19.595Z,53.73
2018-11-14T02:04:50.881Z,46.67
2018-11-14T02:07:22.523Z,45.83
2018-11-14T02:09:53.559Z,59.33
2018-11-14T02:12:24.743Z,43.53
2018-11-14T02:14:55.728Z,45.17
2018-11-14T02:17:27.040Z,49.90
2018-11-14T02:19:58.191Z,53.10
2018-11-14T02:22:29.504Z,49.03
2018-11-14T02:25:00.699Z,45.90
2018-11-14T02:27:31.893Z,54.77
2018-11-14T02:30:03.623Z,52.83
2018-11-14T02:32:34.676Z,50.07
2018-11-14T02:35:06.576Z,63.10
2018-11-14T02:37:37.855Z,52.93
2018-11-14T02:40:13.179Z,50.33
2018-11-14T02:42:44.351Z,52.33
2018-11-14T02:45:15.875Z,60.83
2018-11-14T02:47:47.131Z,47.90
2018-11-14T02:50:18.987Z,45.47
2018-11-14T02:52:50.589Z,62.20
2018-11-14T02:55:21.682Z,50.70
2018-11-14T02:57:52.877Z,52.23
2018-11-14T03:00:24.076Z,50.43
2018-11-14T03:02:55.263Z,52.53
2018-11-14T03:05:26.478Z,51.27
2018-11-14T03:07:57.637Z,52.10
2018-11-14T03:10:28.695Z,47.40
2018-11-14T03:13:00.030Z,61.63
2018-11-14T03:15:31.031Z,53.30
2018-11-14T03:18:02.223Z,49.70
2018-11-14T03:20:33.468Z,49.60
2018-11-14T03:23:04.817Z,46.70
2018-11-14T03:25:35.984Z,45.97
2018-11-14T03:28:07.302Z,48.83
2018-11-14T03:30:38.576Z,50.33
2018-11-14T03:33:09.710Z,52.80
2018-11-14T03:35:45.716Z,43.77
2018-11-14T03:38:16.867Z,46.20
2018-11-14T03:40:48.075Z,43.60
2018-11-14T03:43:19.539Z,44.13
2018-11-14T03:45:50.653Z,43.37
2018-11-14T03:48:21.656Z,43.90
2018-11-14T03:50:52.867Z,52.67
2018-11-14T03:53:24.011Z,50.90
2018-11-14T03:55:55.271Z,47.73
2018-11-14T03:58:26.956Z,53.47
2018-11-14T04:00:58.196Z,52.83
2018-11-14T04:03:29.379Z,55.80
2018-11-14T04:06:00.568Z,70.87
2018-11-14T04:08:31.949Z,43.60
2018-11-14T04:11:02.964Z,64.90
2018-11-14T04:13:34.387Z,40.57
2018-11-14T04:16:05.819Z,38.97
2018-11-14T04:18:37.213Z,44.30
2018-11-14T04:21:08.747Z,40.33
2018-11-14T04:23:43.487Z,46.43
2018-11-14T04:26:14.432Z,45.33
2018-11-14T04:28:45.676Z,52.77
2018-11-14T04:31:17.051Z,35.57
2018-11-14T04:33:48.191Z,34.90
2018-11-14T04:36:19.389Z,36.93
2018-11-14T04:38:50.586Z,38.53
2018-11-14T04:41:21.786Z,45.57
2018-11-14T04:43:52.976Z,43.17
2018-11-14T04:46:23.988Z,33.17
2018-11-14T04:48:55.444Z,33.37
2018-11-14T04:51:26.767Z,38.20
2018-11-14T04:53:57.741Z,34.80
2018-11-14T04:56:29.411Z,34.73
2018-11-14T04:59:00.997Z,33.90
2018-11-14T05:01:32.170Z,30.83
2018-11-14T05:04:03.487Z,33.20
2018-11-14T05:06:34.676Z,32.00
2018-11-14T05:09:07.574Z,30.03
2018-11-14T05:11:39.192Z,54.37
2018-11-14T05:14:10.844Z,28.67
2018-11-14T05:16:41.998Z,27.00
2018-11-14T05:19:13.183Z,25.37
2018-11-14T05:21:44.387Z,26.97
2018-11-14T05:24:15.591Z,37.50
2018-11-14T05:26:47.000Z,60.50
2018-11-14T05:29:18.156Z,63.73
2018-11-14T05:31:49.370Z,36.47
2018-11-14T05:34:20.535Z,55.07
2018-11-14T05:36:51.727Z,68.43
2018-11-14T05:39:22.786Z,42.27
2018-11-14T05:41:53.914Z,37.33
2018-11-14T05:44:25.174Z,44.03
2018-11-14T05:46:56.492Z,66.10
2018-11-14T05:49:27.499Z,46.70
2018-11-14T05:51:58.483Z,54.50
2018-11-14T05:54:29.674Z,47.00
2018-11-14T05:57:00.876Z,37.10
2018-11-14T05:59:32.071Z,39.10
2018-11-14T06:02:03.533Z,33.17
2018-11-14T06:04:34.872Z,33.23
2018-11-14T06:07:05.990Z,28.30
2018-11-14T06:09:37.068Z,29.33
2018-11-14T06:12:07.927Z,33.87
2018-11-14T06:14:40.087Z,38.53
2018-11-14T06:17:11.275Z,57.27
2018-11-14T06:19:42.585Z,53.07
2018-11-14T06:22:13.587Z,108.87
2018-11-14T06:24:44.767Z,88.07
2018-11-14T06:27:15.961Z,65.60
2018-11-14T06:29:47.505Z,58.20
2018-11-14T06:32:19.365Z,83.07
2018-11-14T06:34:50.483Z,72.33
2018-11-14T06:37:22.003Z,85.33
2018-11-14T06:39:53.300Z,76.20
2018-11-14T06:42:24.491Z,47.10
2018-11-14T06:44:55.488Z,61.17
2018-11-14T06:47:27.219Z,45.53
2018-11-14T06:49:58.499Z,37.70
2018-11-14T06:52:29.472Z,42.73
2018-11-14T06:55:01.334Z,40.27
2018-11-14T06:57:32.432Z,40.67
2018-11-14T07:00:03.643Z,33.63
2018-11-14T07:02:38.336Z,30.50
2018-11-14T07:05:07.050Z,35.60
2018-11-14T07:07:38.212Z,35.73
2018-11-14T07:10:12.612Z,35.80
2018-11-14T07:12:43.795Z,31.37
2018-11-14T07:15:18.992Z,42.47
2018-11-14T07:17:51.564Z,33.33
2018-11-14T07:20:26.727Z,30.17
2018-11-14T07:22:58.218Z,33.07
2018-11-14T07:25:29.352Z,31.90
2018-11-14T07:28:00.492Z,30.03
2018-11-14T07:30:32.032Z,33.60
2018-11-14T07:33:06.970Z,31.67
2018-11-14T07:35:38.063Z,34.87
2018-11-14T07:41:26.975Z,30.53
2018-11-14T07:43:58.040Z,33.30
2018-11-14T07:46:30.498Z,31.07
2018-11-14T07:49:02.201Z,35.37
2018-11-14T07:51:33.402Z,32.40
2018-11-14T07:54:04.616Z,35.40
2018-11-14T07:56:36.207Z,37.47
2018-11-14T07:59:07.992Z,34.13
2018-11-14T08:01:39.331Z,30.93
2018-11-14T08:04:10.467Z,32.87
2018-11-14T08:06:41.951Z,35.63
2018-11-14T08:09:13.040Z,30.27
2018-11-14T08:11:44.241Z,30.40
2018-11-14T08:14:15.457Z,31.43
2018-11-14T08:16:46.635Z,30.37
2018-11-14T08:19:18.248Z,33.13
2018-11-14T08:21:49.383Z,32.33
2018-11-14T08:24:20.579Z,37.43
2018-11-14T08:26:51.585Z,34.33
2018-11-14T08:29:22.584Z,40.80
2018-11-14T08:31:54.593Z,36.53
2018-11-14T08:34:25.544Z,36.70
2018-11-14T08:36:57.566Z,33.63
2018-11-14T08:39:28.520Z,34.93
2018-11-14T08:41:59.527Z,34.93
2018-11-14T08:44:31.215Z,37.33
2018-11-14T08:47:02.800Z,36.33
2018-11-14T08:49:33.928Z,33.73
2018-11-14T08:52:05.177Z,28.83
2018-11-14T08:54:37.153Z,27.70
2018-11-14T08:57:08.280Z,31.03
2018-11-14T08:59:39.239Z,32.60
2018-11-14T09:02:10.291Z,32.30
2018-11-14T09:04:41.647Z,30.50
2018-11-14T09:07:19.599Z,28.47
2018-11-14T09:09:50.730Z,29.30
2018-11-14T09:12:21.751Z,24.90
2018-11-14T09:14:52.691Z,26.23
2018-11-14T09:17:23.871Z,25.13
2018-11-14T09:19:54.899Z,25.67
2018-11-14T09:22:26.111Z,20.70
2018-11-14T09:24:58.002Z,19.70
2018-11-14T09:27:29.367Z,19.60
2018-11-14T09:30:01.308Z,17.63
2018-11-14T09:32:32.595Z,24.77
2018-11-14T09:35:03.840Z,25.47
2018-11-14T09:37:34.979Z,24.83
2018-11-14T09:40:07.439Z,21.93
2018-11-14T09:42:39.175Z,21.40
2018-11-14T09:45:14.816Z,20.20
2018-11-14T09:47:45.896Z,26.23
2018-11-14T09:50:19.429Z,21.93
2018-11-14T09:52:52.060Z,23.77
2018-11-14T09:55:23.211Z,20.73
2018-11-14T09:57:54.366Z,19.73
2018-11-14T10:00:27.019Z,20.10
2018-11-14T10:03:04.618Z,18.60
2018-11-14T10:05:35.870Z,16.03
2018-11-14T10:08:07.042Z,20.63
2018-11-14T10:10:38.436Z,20.20
2018-11-14T10:13:10.166Z,14.23
2018-11-14T10:15:41.422Z,14.50
2018-11-14T10:18:12.751Z,16.80
2018-11-14T10:20:43.992Z,20.40
2018-11-14T10:23:15.316Z,15.30
2018-11-14T10:25:46.352Z,19.77
2018-11-14T10:28:17.760Z,16.57
2018-11-14T10:30:48.978Z,15.17
2018-11-14T10:33:20.285Z,14.20
2018-11-14T10:35:51.468Z,14.17
2018-11-14T10:38:22.683Z,13.60
2018-11-14T10:40:54.057Z,14.60
2018-11-14T10:43:25.059Z,14.83
2018-11-14T10:45:56.255Z,15.73
2018-11-14T10:48:27.240Z,11.80
2018-11-14T10:50:58.834Z,14.00
2018-11-14T10:53:30.636Z,13.83
2018-11-14T10:56:01.822Z,12.73
2018-11-14T10:58:35.880Z,13.87
2018-11-14T11:01:13.804Z,16.23
2018-11-14T11:03:50.677Z,15.43
2018-11-14T11:06:38.251Z,13.03
2018-11-14T11:09:17.202Z,16.47
2018-11-14T11:11:53.944Z,18.93
2018-11-14T11:14:35.802Z,15.97
2018-11-14T11:17:13.610Z,14.90
2018-11-14T11:19:46.621Z,16.57
2018-11-14T11:22:19.517Z,13.00
2018-11-14T11:24:52.299Z,15.83
2018-11-14T11:27:25.312Z,13.27
2018-11-14T11:29:58.855Z,13.67
2018-11-14T11:32:31.619Z,13.13
2018-11-14T11:35:04.600Z,14.77
2018-11-14T11:37:37.221Z,12.87
2018-11-14T11:40:10.680Z,12.90
2018-11-14T11:42:43.970Z,12.47
2018-11-14T11:45:16.899Z,14.97
2018-11-14T11:47:48.606Z,12.83
2018-11-14T11:50:20.771Z,14.27
2018-11-14T11:52:52.663Z,14.97
2018-11-14T11:55:23.768Z,15.07
2018-11-14T11:57:54.969Z,14.00
2018-11-14T12:00:26.159Z,15.10
2018-11-14T12:02:57.123Z,13.33
2018-11-14T12:05:28.319Z,14.93
2018-11-14T12:07:59.311Z,12.57
2018-11-14T12:10:30.567Z,14.97
2018-11-14T12:13:01.701Z,12.97
2018-11-14T12:15:32.931Z,14.80
2018-11-14T12:18:04.312Z,15.87
2018-11-14T12:20:35.376Z,12.20
2018-11-14T12:23:06.983Z,12.37
2018-11-14T12:25:38.742Z,13.13
2018-11-14T12:28:09.868Z,12.27
2018-11-14T12:30:41.152Z,11.87
2018-11-14T12:33:12.758Z,16.57
2018-11-14T12:35:44.061Z,13.03
2018-11-14T12:38:15.510Z,12.90
2018-11-14T12:40:46.836Z,13.30
2018-11-14T12:43:18.463Z,13.33
2018-11-14T12:45:49.983Z,11.20
2018-11-14T12:48:21.127Z,16.30
2018-11-14T12:50:52.387Z,16.60
2018-11-14T12:53:23.784Z,13.10
2018-11-14T12:55:55.100Z,14.90
2018-11-14T12:58:26.291Z,12.57
2018-11-14T13:00:57.504Z,11.40
2018-11-14T13:03:28.503Z,12.27
2018-11-14T13:05:59.672Z,15.50
2018-11-14T13:08:30.856Z,11.63
2018-11-14T13:11:03.139Z,13.93
2018-11-14T13:13:39.319Z,12.33
2018-11-14T13:16:10.551Z,15.57
2018-11-14T13:18:42.327Z,12.10
2018-11-14T13:21:17.147Z,12.37
2018-11-14T13:23:48.795Z,13.63
2018-11-14T13:26:20.099Z,9.83
2018-11-14T13:28:51.758Z,11.40
2018-11-14T13:31:22.815Z,12.50
2018-11-14T13:33:54.068Z,11.83
2018-11-14T13:36:25.675Z,13.17
2018-11-14T13:38:56.971Z,10.83
2018-11-14T13:41:27.960Z,11.10
2018-11-14T13:43:59.189Z,11.33
2018-11-14T13:46:30.639Z,11.30
2018-11-14T13:49:01.992Z,11.93
2018-11-14T13:51:33.171Z,11.10
2018-11-14T13:54:04.387Z,14.13
2018-11-14T13:56:35.692Z,10.73
2018-11-14T13:59:07.220Z,14.10
2018-11-14T14:01:38.281Z,11.17
2018-11-14T14:04:09.281Z,11.80
2018-11-14T14:06:42.571Z,11.30
2018-11-14T14:09:14.294Z,10.43
2018-11-14T14:11:47.236Z,12.67
2018-11-14T14:14:19.096Z,14.73
2018-11-14T14:16:50.200Z,17.43
2018-11-14T14:19:21.598Z,12.70
2018-11-14T14:21:52.951Z,11.17
2018-11-14T14:24:23.962Z,11.33
2018-11-14T14:26:55.115Z,12.37
2018-11-14T14:29:26.311Z,13.27
2018-11-14T14:31:57.499Z,15.40
2018-11-14T14:34:29.051Z,10.00
2018-11-14T14:37:00.315Z,9.97
2018-11-14T14:39:31.259Z,14.63
2018-11-14T14:42:02.516Z,13.17
2018-11-14T14:44:33.645Z,12.93
2018-11-14T14:47:04.709Z,13.33
2018-11-14T14:49:36.040Z,12.97
2018-11-14T14:52:07.520Z,11.30
2018-11-14T14:54:39.046Z,12.83
2018-11-14T14:57:10.895Z,12.90
2018-11-14T14:59:42.230Z,15.50
2018-11-14T15:02:13.379Z,11.70
2018-11-14T15:04:44.391Z,12.43
2018-11-14T15:07:15.563Z,13.73
2018-11-14T15:09:46.753Z,14.60
2018-11-14T15:12:17.756Z,13.87
2018-11-14T15:14:48.752Z,14.40
2018-11-14T15:17:19.940Z,12.13
2018-11-14T15:19:50.940Z,13.57
2018-11-14T15:22:22.936Z,14.23
2018-11-14T15:24:53.944Z,10.73
2018-11-14T15:27:25.084Z,13.73
2018-11-14T15:29:56.280Z,13.13
2018-11-14T15:32:27.463Z,11.70
2018-11-14T15:34:59.011Z,12.90
2018-11-14T15:37:30.253Z,15.87
2018-11-14T15:40:01.288Z,12.13
2018-11-14T15:42:32.457Z,16.50
2018-11-14T15:45:03.479Z,10.70
2018-11-14T15:47:34.787Z,14.83
2018-11-14T15:50:07.989Z,13.50
2018-11-14T15:52:39.087Z,11.90
2018-11-14T15:55:12.432Z,14.27
2018-11-14T15:57:43.615Z,15.30
2018-11-14T16:00:18.969Z,14.30
2018-11-14T16:02:50.244Z,12.10
2018-11-14T16:05:22.616Z,13.47
2018-11-14T16:07:54.855Z,13.87
2018-11-14T16:10:27.092Z,15.23
2018-11-14T16:12:58.348Z,15.10
2018-11-14T16:15:32.587Z,12.30
2018-11-14T16:18:03.962Z,11.13
2018-11-14T16:20:35.256Z,15.07
2018-11-14T16:23:07.103Z,14.37
2018-11-14T16:25:38.486Z,12.20
2018-11-14T16:28:09.921Z,14.83
2018-11-14T16:30:41.213Z,15.40
2018-11-14T16:33:12.287Z,14.43
2018-11-14T16:35:43.592Z,16.90
2018-11-14T16:38:14.858Z,19.77
2018-11-14T16:40:45.991Z,14.30
2018-11-14T16:43:17.159Z,15.37
2018-11-14T16:45:48.661Z,12.97
2018-11-14T16:48:19.747Z,14.67
2018-11-14T16:50:50.943Z,14.63
2018-11-14T16:53:22.123Z,22.70
2018-11-14T16:55:53.368Z,17.27
2018-11-14T16:58:24.831Z,14.10
2018-11-14T17:00:55.945Z,18.33
2018-11-14T17:03:27.662Z,19.17
2018-11-14T17:05:59.195Z,17.40
2018-11-14T17:08:30.475Z,20.00
2018-11-14T17:11:01.468Z,23.43
2018-11-14T17:13:32.460Z,15.33
2018-11-14T17:16:04.337Z,18.23
2018-11-14T17:18:35.628Z,15.53
2018-11-14T17:21:07.255Z,14.63
2018-11-14T17:23:38.403Z,18.77
2018-11-14T17:26:10.320Z,18.63
2018-11-14T17:28:41.372Z,16.87
2018-11-14T17:31:12.573Z,15.00
2018-11-14T17:33:43.976Z,18.47
2018-11-14T17:36:15.424Z,12.97
2018-11-14T17:38:46.979Z,13.80
2018-11-14T17:41:18.657Z,19.60
2018-11-14T17:43:49.720Z,18.40
2018-11-14T17:46:20.899Z,17.33
2018-11-14T17:48:52.100Z,16.93
2018-11-14T17:51:23.279Z,17.43
2018-11-14T17:53:54.280Z,14.53
2018-11-14T17:56:27.238Z,18.63
2018-11-14T17:58:59.456Z,16.03
2018-11-14T18:01:31.107Z,18.33
2018-11-14T18:04:02.417Z,16.40
2018-11-14T18:06:33.883Z,18.40
2018-11-14T18:09:07.275Z,15.57
2018-11-14T18:11:39.311Z,17.13
2018-11-14T18:14:11.051Z,19.57
2018-11-14T18:16:42.116Z,17.07
2018-11-14T18:19:13.772Z,21.13
2018-11-14T18:21:48.493Z,18.87
2018-11-14T18:24:19.787Z,15.77
2018-11-14T18:26:52.071Z,14.87
2018-11-14T18:29:24.014Z,17.63
2018-11-14T18:31:55.143Z,17.33
2018-11-14T18:34:26.812Z,16.17
2018-11-14T18:36:58.399Z,19.87
2018-11-14T18:39:29.501Z,20.10
2018-11-14T18:42:00.526Z,20.80
2018-11-14T18:44:31.680Z,16.57
2018-11-14T18:47:02.948Z,17.97
2018-11-14T18:49:34.260Z,20.23
2018-11-14T18:52:05.399Z,19.03
2018-11-14T18:54:36.651Z,16.37
2018-11-14T18:57:08.365Z,18.53
2018-11-14T18:59:40.612Z,30.90
2018-11-14T19:02:11.792Z,27.20
2018-11-14T19:04:42.984Z,25.57
2018-11-14T19:07:14.515Z,36.37
2018-11-14T19:09:45.842Z,24.03
2018-11-14T19:12:17.502Z,22.40
2018-11-14T19:14:48.742Z,17.23
2018-11-14T19:17:20.211Z,18.63
2018-11-14T19:19:51.644Z,19.83
2018-11-14T19:22:22.720Z,17.03
2018-11-14T19:24:54.143Z,18.30
2018-11-14T19:27:26.264Z,16.67
2018-11-14T19:29:57.471Z,19.13
2018-11-14T19:32:29.252Z,19.33
2018-11-14T19:35:00.448Z,19.23
2018-11-14T19:37:31.972Z,19.27
2018-11-14T19:40:03.039Z,18.53
2018-11-14T19:42:34.205Z,28.00
2018-11-14T19:45:06.220Z,38.50
2018-11-14T19:47:38.127Z,28.80
2018-11-14T19:50:13.147Z,23.53
2018-11-14T19:52:46.355Z,25.33
2018-11-14T19:55:18.644Z,27.20
2018-11-14T19:57:52.906Z,30.50
2018-11-14T20:00:27.163Z,26.60
2018-11-14T20:02:58.603Z,31.40
2018-11-14T20:05:29.915Z,21.30
2018-11-14T20:08:01.088Z,20.97
2018-11-14T20:10:33.312Z,19.33
2018-11-14T20:13:04.475Z,24.23
2018-11-14T20:15:36.755Z,20.13
2018-11-14T20:18:09.987Z,20.30
2018-11-14T20:20:41.239Z,22.00
2018-11-14T20:23:12.556Z,24.03
2018-11-14T20:25:43.875Z,26.37
2018-11-14T20:28:15.316Z,22.60
2018-11-14T20:30:47.215Z,20.93
2018-11-14T20:33:18.627Z,19.77
2018-11-14T20:35:50.584Z,22.73
2018-11-14T20:38:25.343Z,22.73
2018-11-14T20:40:56.749Z,18.50
2018-11-14T20:43:28.037Z,17.50
2018-11-14T20:45:59.619Z,16.87
2018-11-14T20:48:31.799Z,19.97
2018-11-14T20:51:02.999Z,20.50
2018-11-14T20:53:34.351Z,17.63
2018-11-14T20:56:05.627Z,20.30
2018-11-14T20:58:36.896Z,21.53
2018-11-14T21:01:08.431Z,19.70
2018-11-14T21:03:39.654Z,18.13
2018-11-14T21:06:10.912Z,22.67
2018-11-14T21:08:41.868Z,21.83
2018-11-14T21:11:13.541Z,22.13
2018-11-14T21:13:45.131Z,19.63
2018-11-14T21:16:16.247Z,18.83
2018-11-14T21:18:47.219Z,22.60
2018-11-14T21:21:18.720Z,20.97
2018-11-14T21:23:49.797Z,19.53
2018-11-14T21:26:21.283Z,21.90
2018-11-14T21:28:52.875Z,21.20
2018-11-14T21:31:24.256Z,22.33
2018-11-14T21:33:55.551Z,25.97
2018-11-14T21:36:26.736Z,22.70
2018-11-14T21:38:57.742Z,20.27
2018-11-14T21:41:29.687Z,20.57
2018-11-14T21:44:00.923Z,19.80
2018-11-14T21:46:32.340Z,21.47
2018-11-14T21:49:03.642Z,18.63
2018-11-14T21:51:34.685Z,22.90
2018-11-14T21:54:06.355Z,19.80
2018-11-14T21:56:37.603Z,20.60
2018-11-14T21:59:08.729Z,18.80
2018-11-14T22:01:39.919Z,20.47
2018-11-14T22:04:10.702Z,21.57
2018-11-14T22:06:41.828Z,20.00
2018-11-14T22:09:13.805Z,18.30
2018-11-14T22:11:45.004Z,19.53
2018-11-14T22:14:16.182Z,19.00
2018-11-14T22:16:47.207Z,21.13
2018-11-14T22:19:18.192Z,18.20
2018-11-14T22:21:49.375Z,20.37
2018-11-14T22:24:20.565Z,18.00
2018-11-14T22:26:51.743Z,18.10
2018-11-14T22:29:23.647Z,21.87
2018-11-14T22:31:54.775Z,25.40
2018-11-14T22:34:25.734Z,25.77
2018-11-14T22:36:56.719Z,24.47
2018-11-14T22:39:27.911Z,22.57
2018-11-14T22:41:59.107Z,24.57
2018-11-14T22:44:30.299Z,34.87
2018-11-14T22:47:01.479Z,25.23
2018-11-14T22:49:32.692Z,26.67
2018-11-14T22:52:04.132Z,21.73
2018-11-14T22:54:35.255Z,23.57
2018-11-14T22:57:06.322Z,42.30
2018-11-14T22:59:37.475Z,38.43
2018-11-14T23:02:08.945Z,20.50
2018-11-14T23:04:40.220Z,33.60
2018-11-14T23:07:11.231Z,21.60
2018-11-14T23:09:42.453Z,23.70
2018-11-14T23:12:13.591Z,22.90
2018-11-14T23:14:45.215Z,46.77
2018-11-14T23:17:16.371Z,31.77
2018-11-14T23:19:47.380Z,28.27
2018-11-14T23:22:18.404Z,30.70
2018-11-14T23:24:49.565Z,33.07
2018-11-14T23:27:20.565Z,27.23
2018-11-14T23:29:51.731Z,25.03
2018-11-14T23:32:22.983Z,24.30
2018-11-14T23:34:58.827Z,20.77
2018-11-14T23:37:30.057Z,23.90
2018-11-14T23:40:01.257Z,25.27
2018-11-14T23:42:32.427Z,27.77
2018-11-14T23:45:03.648Z,31.07
2018-11-14T23:47:35.111Z,23.20
2018-11-14T23:50:09.207Z,23.47
2018-11-14T23:52:41.425Z,22.97
2018-11-14T23:55:12.555Z,21.40
2018-11-14T23:57:43.761Z,17.07
